sensor_id;sensor_type;location;lat;lon;timestamp;temperature;humidity
5578;DHT22;2811;51.900;10.734;2023-02-28T00:00:37;1.00;99.90
5578;DHT22;2811;51.900;10.734;2023-02-28T00:03:04;1.00;99.90
5578;DHT22;2811;51.900;10.734;2023-02-28T00:05:31;1.20;99.90
5578;DHT22;2811;51.900;10.734;2023-02-28T00:07:58;1.50;99.90
5578;DHT22;2811;51.900;10.734;2023-02-28T00:10:27;1.70;99.90
5578;DHT22;2811;51.900;10.734;2023-02-28T00:12:55;1.60;99.90
5578;DHT22;2811;51.900;10.734;2023-02-28T00:15:24;1.40;99.90
5578;DHT22;2811;51.900;10.734;2023-02-28T00:17:51;1.40;99.90
5578;DHT22;2811;51.900;10.734;2023-02-28T00:20:18;1.30;99.90
5578;DHT22;2811;51.900;10.734;2023-02-28T00:22:47;1.60;99.90
5578;DHT22;2811;51.900;10.734;2023-02-28T00:25:16;1.70;99.90
5578;DHT22;2811;51.900;10.734;2023-02-28T00:27:44;1.50;99.90
5578;DHT22;2811;51.900;10.734;2023-02-28T00:32:44;1.60;99.90
5578;DHT22;2811;51.900;10.734;2023-02-28T00:35:11;1.60;99.90
5578;DHT22;2811;51.900;10.734;2023-02-28T00:37:38;1.50;99.90
5578;DHT22;2811;51.900;10.734;2023-02-28T00:40:06;1.70;99.90
5578;DHT22;2811;51.900;10.734;2023-02-28T00:42:35;2.00;99.90
5578;DHT22;2811;51.900;10.734;2023-02-28T00:45:02;1.80;99.90
5578;DHT22;2811;51.900;10.734;2023-02-28T00:47:30;1.70;99.90
5578;DHT22;2811;51.900;10.734;2023-02-28T00:50:00;1.60;99.90
5578;DHT22;2811;51.900;10.734;2023-02-28T00:52:26;1.40;99.90
5578;DHT22;2811;51.900;10.734;2023-02-28T00:54:53;1.40;99.90
5578;DHT22;2811;51.900;10.734;2023-02-28T00:57:20;1.70;99.90
5578;DHT22;2811;51.900;10.734;2023-02-28T00:59:46;1.90;99.90
5578;DHT22;2811;51.900;10.734;2023-02-28T01:02:13;1.90;99.90
5578;DHT22;2811;51.900;10.734;2023-02-28T01:04:40;2.00;99.90
5578;DHT22;2811;51.900;10.734;2023-02-28T01:07:08;2.20;99.90
5578;DHT22;2811;51.900;10.734;2023-02-28T01:09:35;2.20;99.90
5578;DHT22;2811;51.900;10.734;2023-02-28T01:12:01;2.00;99.90
5578;DHT22;2811;51.900;10.734;2023-02-28T01:14:28;1.80;99.90
5578;DHT22;2811;51.900;10.734;2023-02-28T01:16:55;1.70;99.90
5578;DHT22;2811;51.900;10.734;2023-02-28T01:19:21;1.60;99.90
5578;DHT22;2811;51.900;10.734;2023-02-28T01:21:48;1.50;99.90
5578;DHT22;2811;51.900;10.734;2023-02-28T01:24:16;1.50;99.90
5578;DHT22;2811;51.900;10.734;2023-02-28T01:26:43;1.50;99.90
5578;DHT22;2811;51.900;10.734;2023-02-28T01:29:09;1.50;99.90
5578;DHT22;2811;51.900;10.734;2023-02-28T01:31:36;1.50;99.90
5578;DHT22;2811;51.900;10.734;2023-02-28T01:34:03;1.60;99.90
5578;DHT22;2811;51.900;10.734;2023-02-28T01:36:30;1.50;99.90
5578;DHT22;2811;51.900;10.734;2023-02-28T01:38:56;1.50;99.90
5578;DHT22;2811;51.900;10.734;2023-02-28T01:41:26;1.50;99.90
5578;DHT22;2811;51.900;10.734;2023-02-28T01:43:57;1.50;99.90
5578;DHT22;2811;51.900;10.734;2023-02-28T01:46:24;1.90;99.90
5578;DHT22;2811;51.900;10.734;2023-02-28T01:48:53;1.60;99.90
5578;DHT22;2811;51.900;10.734;2023-02-28T01:51:26;1.70;99.90
5578;DHT22;2811;51.900;10.734;2023-02-28T01:53:56;1.50;99.90
5578;DHT22;2811;51.900;10.734;2023-02-28T01:56:29;1.60;99.90
5578;DHT22;2811;51.900;10.734;2023-02-28T01:58:56;1.80;99.90
5578;DHT22;2811;51.900;10.734;2023-02-28T02:01:25;1.50;99.90
5578;DHT22;2811;51.900;10.734;2023-02-28T02:03:55;1.50;99.90
5578;DHT22;2811;51.900;10.734;2023-02-28T02:06:23;1.40;99.90
5578;DHT22;2811;51.900;10.734;2023-02-28T02:08:51;1.40;99.90
5578;DHT22;2811;51.900;10.734;2023-02-28T02:11:20;1.30;99.90
5578;DHT22;2811;51.900;10.734;2023-02-28T02:14:00;1.40;99.90
5578;DHT22;2811;51.900;10.734;2023-02-28T02:16:37;1.60;99.90
5578;DHT22;2811;51.900;10.734;2023-02-28T02:19:21;1.40;99.90
5578;DHT22;2811;51.900;10.734;2023-02-28T02:22:10;1.10;99.90
5578;DHT22;2811;51.900;10.734;2023-02-28T02:25:04;1.10;99.90
5578;DHT22;2811;51.900;10.734;2023-02-28T02:28:00;1.20;99.90
5578;DHT22;2811;51.900;10.734;2023-02-28T02:30:59;1.10;99.90
5578;DHT22;2811;51.900;10.734;2023-02-28T02:36:41;0.90;99.90
5578;DHT22;2811;51.900;10.734;2023-02-28T02:39:19;1.00;99.90
5578;DHT22;2811;51.900;10.734;2023-02-28T02:41:51;1.00;99.90
5578;DHT22;2811;51.900;10.734;2023-02-28T02:44:22;1.10;99.90
5578;DHT22;2811;51.900;10.734;2023-02-28T02:46:53;1.10;99.90
5578;DHT22;2811;51.900;10.734;2023-02-28T02:49:24;1.10;99.90
5578;DHT22;2811;51.900;10.734;2023-02-28T02:51:54;1.10;99.90
5578;DHT22;2811;51.900;10.734;2023-02-28T02:54:24;1.20;99.90
5578;DHT22;2811;51.900;10.734;2023-02-28T02:56:56;1.20;99.90
5578;DHT22;2811;51.900;10.734;2023-02-28T02:59:24;1.30;99.90
5578;DHT22;2811;51.900;10.734;2023-02-28T03:01:54;1.30;99.90
5578;DHT22;2811;51.900;10.734;2023-02-28T03:04:23;1.00;99.90
5578;DHT22;2811;51.900;10.734;2023-02-28T03:06:51;1.00;99.90
5578;DHT22;2811;51.900;10.734;2023-02-28T03:09:21;1.20;99.90
5578;DHT22;2811;51.900;10.734;2023-02-28T03:11:49;1.30;99.90
5578;DHT22;2811;51.900;10.734;2023-02-28T03:14:25;1.10;99.90
5578;DHT22;2811;51.900;10.734;2023-02-28T03:17:08;0.80;99.90
5578;DHT22;2811;51.900;10.734;2023-02-28T03:19:47;0.80;99.90
5578;DHT22;2811;51.900;10.734;2023-02-28T03:22:32;0.80;99.90
5578;DHT22;2811;51.900;10.734;2023-02-28T03:25:07;1.00;99.90
5578;DHT22;2811;51.900;10.734;2023-02-28T03:27:40;1.10;99.90
5578;DHT22;2811;51.900;10.734;2023-02-28T03:30:10;1.00;99.90
5578;DHT22;2811;51.900;10.734;2023-02-28T03:32:43;0.90;99.90
5578;DHT22;2811;51.900;10.734;2023-02-28T03:35:16;1.00;99.90
5578;DHT22;2811;51.900;10.734;2023-02-28T03:37:49;1.20;99.90
5578;DHT22;2811;51.900;10.734;2023-02-28T03:40:21;1.10;99.90
5578;DHT22;2811;51.900;10.734;2023-02-28T03:42:54;1.00;99.90
5578;DHT22;2811;51.900;10.734;2023-02-28T03:45:26;1.00;99.90
5578;DHT22;2811;51.900;10.734;2023-02-28T03:47:56;1.20;99.90
5578;DHT22;2811;51.900;10.734;2023-02-28T03:50:26;1.20;99.90
5578;DHT22;2811;51.900;10.734;2023-02-28T03:52:58;1.20;99.90
5578;DHT22;2811;51.900;10.734;2023-02-28T03:55:34;1.30;99.90
5578;DHT22;2811;51.900;10.734;2023-02-28T03:58:07;1.30;99.90
5578;DHT22;2811;51.900;10.734;2023-02-28T04:00:41;1.20;99.90
5578;DHT22;2811;51.900;10.734;2023-02-28T04:03:10;1.30;99.90
5578;DHT22;2811;51.900;10.734;2023-02-28T04:05:46;1.30;99.90
5578;DHT22;2811;51.900;10.734;2023-02-28T04:08:14;1.30;99.90
5578;DHT22;2811;51.900;10.734;2023-02-28T04:10:45;1.20;99.90
5578;DHT22;2811;51.900;10.734;2023-02-28T04:13:13;1.20;99.90
5578;DHT22;2811;51.900;10.734;2023-02-28T04:15:40;1.30;99.90
5578;DHT22;2811;51.900;10.734;2023-02-28T04:18:07;1.10;99.90
5578;DHT22;2811;51.900;10.734;2023-02-28T04:20:34;1.00;99.90
5578;DHT22;2811;51.900;10.734;2023-02-28T04:23:00;1.10;99.90
5578;DHT22;2811;51.900;10.734;2023-02-28T04:25:27;1.00;99.90
5578;DHT22;2811;51.900;10.734;2023-02-28T04:27:55;1.00;99.90
5578;DHT22;2811;51.900;10.734;2023-02-28T04:30:22;1.00;99.90
5578;DHT22;2811;51.900;10.734;2023-02-28T04:32:49;1.00;99.90
5578;DHT22;2811;51.900;10.734;2023-02-28T04:35:15;0.90;99.90
5578;DHT22;2811;51.900;10.734;2023-02-28T04:37:42;0.90;99.90
5578;DHT22;2811;51.900;10.734;2023-02-28T04:40:10;0.90;99.90
5578;DHT22;2811;51.900;10.734;2023-02-28T04:42:37;0.90;99.90
5578;DHT22;2811;51.900;10.734;2023-02-28T04:45:06;1.10;99.90
5578;DHT22;2811;51.900;10.734;2023-02-28T04:47:35;0.90;99.90
5578;DHT22;2811;51.900;10.734;2023-02-28T04:50:02;0.90;99.90
5578;DHT22;2811;51.900;10.734;2023-02-28T04:52:29;0.80;99.90
5578;DHT22;2811;51.900;10.734;2023-02-28T04:54:56;0.90;99.90
5578;DHT22;2811;51.900;10.734;2023-02-28T04:57:22;0.80;99.90
5578;DHT22;2811;51.900;10.734;2023-02-28T04:59:49;0.70;99.90
5578;DHT22;2811;51.900;10.734;2023-02-28T05:02:17;1.00;99.90
5578;DHT22;2811;51.900;10.734;2023-02-28T05:04:45;1.00;99.90
5578;DHT22;2811;51.900;10.734;2023-02-28T05:07:12;0.80;99.90
5578;DHT22;2811;51.900;10.734;2023-02-28T05:09:38;0.70;99.90
5578;DHT22;2811;51.900;10.734;2023-02-28T05:12:06;0.90;99.90
5578;DHT22;2811;51.900;10.734;2023-02-28T05:14:33;0.70;99.90
5578;DHT22;2811;51.900;10.734;2023-02-28T05:16:59;0.70;99.90
5578;DHT22;2811;51.900;10.734;2023-02-28T05:19:27;0.70;99.90
5578;DHT22;2811;51.900;10.734;2023-02-28T05:21:55;0.70;99.90
5578;DHT22;2811;51.900;10.734;2023-02-28T05:24:22;0.80;99.90
5578;DHT22;2811;51.900;10.734;2023-02-28T05:26:50;0.70;99.90
5578;DHT22;2811;51.900;10.734;2023-02-28T05:29:17;0.80;99.90
5578;DHT22;2811;51.900;10.734;2023-02-28T05:31:44;0.90;99.90
5578;DHT22;2811;51.900;10.734;2023-02-28T05:34:11;0.70;99.90
5578;DHT22;2811;51.900;10.734;2023-02-28T05:36:39;0.70;99.90
5578;DHT22;2811;51.900;10.734;2023-02-28T05:39:06;0.90;99.90
5578;DHT22;2811;51.900;10.734;2023-02-28T05:41:40;0.80;99.90
5578;DHT22;2811;51.900;10.734;2023-02-28T05:44:07;0.70;99.90
5578;DHT22;2811;51.900;10.734;2023-02-28T05:46:34;1.10;99.90
5578;DHT22;2811;51.900;10.734;2023-02-28T05:49:01;0.80;99.90
5578;DHT22;2811;51.900;10.734;2023-02-28T05:51:27;0.70;99.90
5578;DHT22;2811;51.900;10.734;2023-02-28T05:53:58;0.70;99.90
5578;DHT22;2811;51.900;10.734;2023-02-28T05:56:25;0.60;99.90
5578;DHT22;2811;51.900;10.734;2023-02-28T05:58:52;0.50;99.90
5578;DHT22;2811;51.900;10.734;2023-02-28T06:01:25;0.60;99.90
5578;DHT22;2811;51.900;10.734;2023-02-28T06:03:56;0.60;99.90
5578;DHT22;2811;51.900;10.734;2023-02-28T06:06:24;0.50;99.90
5578;DHT22;2811;51.900;10.734;2023-02-28T06:08:50;0.40;99.90
5578;DHT22;2811;51.900;10.734;2023-02-28T06:11:18;0.50;99.90
5578;DHT22;2811;51.900;10.734;2023-02-28T06:13:46;0.50;99.90
5578;DHT22;2811;51.900;10.734;2023-02-28T06:16:13;0.50;99.90
5578;DHT22;2811;51.900;10.734;2023-02-28T06:18:39;0.40;99.90
5578;DHT22;2811;51.900;10.734;2023-02-28T06:21:06;0.80;99.90
5578;DHT22;2811;51.900;10.734;2023-02-28T06:23:34;0.70;99.90
5578;DHT22;2811;51.900;10.734;2023-02-28T06:26:00;0.50;99.90
5578;DHT22;2811;51.900;10.734;2023-02-28T06:28:28;0.70;99.90
5578;DHT22;2811;51.900;10.734;2023-02-28T06:30:55;0.80;99.90
5578;DHT22;2811;51.900;10.734;2023-02-28T06:33:22;0.90;99.90
5578;DHT22;2811;51.900;10.734;2023-02-28T06:35:50;0.80;99.90
5578;DHT22;2811;51.900;10.734;2023-02-28T06:38:17;0.80;99.90
5578;DHT22;2811;51.900;10.734;2023-02-28T06:40:44;0.80;99.90
5578;DHT22;2811;51.900;10.734;2023-02-28T06:43:11;0.90;99.90
5578;DHT22;2811;51.900;10.734;2023-02-28T06:45:43;1.10;99.90
5578;DHT22;2811;51.900;10.734;2023-02-28T06:48:10;0.90;99.90
5578;DHT22;2811;51.900;10.734;2023-02-28T06:50:36;0.80;99.90
5578;DHT22;2811;51.900;10.734;2023-02-28T06:53:03;1.00;99.90
5578;DHT22;2811;51.900;10.734;2023-02-28T06:55:30;0.80;99.90
5578;DHT22;2811;51.900;10.734;2023-02-28T06:57:57;0.90;99.90
5578;DHT22;2811;51.900;10.734;2023-02-28T07:00:24;0.90;99.90
5578;DHT22;2811;51.900;10.734;2023-02-28T07:02:52;1.00;99.90
5578;DHT22;2811;51.900;10.734;2023-02-28T07:05:20;1.10;99.90
5578;DHT22;2811;51.900;10.734;2023-02-28T07:07:47;1.10;99.90
5578;DHT22;2811;51.900;10.734;2023-02-28T07:10:14;1.00;99.90
5578;DHT22;2811;51.900;10.734;2023-02-28T07:12:42;1.00;99.90
5578;DHT22;2811;51.900;10.734;2023-02-28T07:15:10;1.20;99.90
5578;DHT22;2811;51.900;10.734;2023-02-28T07:17:37;1.50;99.90
5578;DHT22;2811;51.900;10.734;2023-02-28T07:20:06;2.00;99.90
5578;DHT22;2811;51.900;10.734;2023-02-28T07:22:32;2.20;99.90
5578;DHT22;2811;51.900;10.734;2023-02-28T07:24:59;2.50;99.90
5578;DHT22;2811;51.900;10.734;2023-02-28T07:27:26;2.90;99.90
5578;DHT22;2811;51.900;10.734;2023-02-28T07:29:53;2.90;99.90
5578;DHT22;2811;51.900;10.734;2023-02-28T07:32:21;2.90;99.90
5578;DHT22;2811;51.900;10.734;2023-02-28T07:34:47;2.90;99.90
5578;DHT22;2811;51.900;10.734;2023-02-28T07:37:16;2.80;99.90
5578;DHT22;2811;51.900;10.734;2023-02-28T07:39:42;2.70;99.90
5578;DHT22;2811;51.900;10.734;2023-02-28T07:42:09;3.20;99.90
5578;DHT22;2811;51.900;10.734;2023-02-28T07:44:37;3.00;99.90
5578;DHT22;2811;51.900;10.734;2023-02-28T07:47:06;3.10;99.90
5578;DHT22;2811;51.900;10.734;2023-02-28T07:49:33;3.20;99.90
5578;DHT22;2811;51.900;10.734;2023-02-28T07:52:00;3.30;99.90
5578;DHT22;2811;51.900;10.734;2023-02-28T07:54:29;3.40;99.90
5578;DHT22;2811;51.900;10.734;2023-02-28T07:56:55;3.50;99.90
5578;DHT22;2811;51.900;10.734;2023-02-28T07:59:22;3.60;99.90
5578;DHT22;2811;51.900;10.734;2023-02-28T08:01:49;3.70;99.90
5578;DHT22;2811;51.900;10.734;2023-02-28T08:04:16;3.70;99.90
5578;DHT22;2811;51.900;10.734;2023-02-28T08:06:43;3.70;99.90
5578;DHT22;2811;51.900;10.734;2023-02-28T08:09:10;3.70;99.90
5578;DHT22;2811;51.900;10.734;2023-02-28T08:11:38;3.70;99.90
5578;DHT22;2811;51.900;10.734;2023-02-28T08:14:05;3.80;99.90
5578;DHT22;2811;51.900;10.734;2023-02-28T08:16:32;3.90;99.90
5578;DHT22;2811;51.900;10.734;2023-02-28T08:18:58;3.80;99.90
5578;DHT22;2811;51.900;10.734;2023-02-28T08:21:25;3.90;99.90
5578;DHT22;2811;51.900;10.734;2023-02-28T08:23:51;4.10;99.90
5578;DHT22;2811;51.900;10.734;2023-02-28T08:26:19;4.20;99.90
5578;DHT22;2811;51.900;10.734;2023-02-28T08:28:47;4.30;99.90
5578;DHT22;2811;51.900;10.734;2023-02-28T08:31:15;4.50;99.90
5578;DHT22;2811;51.900;10.734;2023-02-28T08:33:42;4.40;99.90
5578;DHT22;2811;51.900;10.734;2023-02-28T08:36:10;4.30;99.90
5578;DHT22;2811;51.900;10.734;2023-02-28T08:38:37;4.30;99.90
5578;DHT22;2811;51.900;10.734;2023-02-28T08:41:06;4.40;99.90
5578;DHT22;2811;51.900;10.734;2023-02-28T08:43:34;4.60;99.90
5578;DHT22;2811;51.900;10.734;2023-02-28T08:46:02;4.80;99.90
5578;DHT22;2811;51.900;10.734;2023-02-28T08:48:30;4.80;99.90
5578;DHT22;2811;51.900;10.734;2023-02-28T08:50:59;4.80;99.90
5578;DHT22;2811;51.900;10.734;2023-02-28T08:53:26;5.00;99.90
5578;DHT22;2811;51.900;10.734;2023-02-28T08:55:56;5.00;99.90
5578;DHT22;2811;51.900;10.734;2023-02-28T08:58:23;5.00;99.90
5578;DHT22;2811;51.900;10.734;2023-02-28T09:00:50;5.00;99.90
5578;DHT22;2811;51.900;10.734;2023-02-28T09:03:18;5.10;99.90
5578;DHT22;2811;51.900;10.734;2023-02-28T09:05:52;4.90;99.90
5578;DHT22;2811;51.900;10.734;2023-02-28T09:08:18;4.90;99.90
5578;DHT22;2811;51.900;10.734;2023-02-28T09:10:45;4.90;99.90
5578;DHT22;2811;51.900;10.734;2023-02-28T09:13:12;5.00;99.90
5578;DHT22;2811;51.900;10.734;2023-02-28T09:15:39;5.00;99.90
5578;DHT22;2811;51.900;10.734;2023-02-28T09:18:06;5.10;99.90
5578;DHT22;2811;51.900;10.734;2023-02-28T09:20:38;5.20;99.90
5578;DHT22;2811;51.900;10.734;2023-02-28T09:23:05;5.10;99.90
5578;DHT22;2811;51.900;10.734;2023-02-28T09:25:32;5.20;99.90
5578;DHT22;2811;51.900;10.734;2023-02-28T09:27:58;5.20;99.90
5578;DHT22;2811;51.900;10.734;2023-02-28T09:30:25;5.20;99.90
5578;DHT22;2811;51.900;10.734;2023-02-28T09:32:52;5.30;99.90
5578;DHT22;2811;51.900;10.734;2023-02-28T09:35:20;5.20;99.90
5578;DHT22;2811;51.900;10.734;2023-02-28T09:37:48;5.40;99.90
5578;DHT22;2811;51.900;10.734;2023-02-28T09:40:15;5.30;99.90
5578;DHT22;2811;51.900;10.734;2023-02-28T09:42:46;5.40;99.90
5578;DHT22;2811;51.900;10.734;2023-02-28T09:45:19;5.30;99.90
5578;DHT22;2811;51.900;10.734;2023-02-28T09:47:48;5.40;99.90
5578;DHT22;2811;51.900;10.734;2023-02-28T09:50:22;5.50;99.90
5578;DHT22;2811;51.900;10.734;2023-02-28T09:52:53;5.40;99.90
5578;DHT22;2811;51.900;10.734;2023-02-28T09:55:28;5.20;99.90
5578;DHT22;2811;51.900;10.734;2023-02-28T09:57:57;5.30;99.90
5578;DHT22;2811;51.900;10.734;2023-02-28T10:00:29;5.30;99.90
5578;DHT22;2811;51.900;10.734;2023-02-28T10:03:10;5.20;99.80
5578;DHT22;2811;51.900;10.734;2023-02-28T10:05:40;5.20;99.90
5578;DHT22;2811;51.900;10.734;2023-02-28T10:08:14;5.00;99.90
5578;DHT22;2811;51.900;10.734;2023-02-28T10:10:43;4.90;99.80
5578;DHT22;2811;51.900;10.734;2023-02-28T10:13:17;5.00;98.70
5578;DHT22;2811;51.900;10.734;2023-02-28T10:15:49;5.30;99.20
5578;DHT22;2811;51.900;10.734;2023-02-28T10:18:23;5.10;98.20
5578;DHT22;2811;51.900;10.734;2023-02-28T10:20:51;5.20;98.90
5578;DHT22;2811;51.900;10.734;2023-02-28T10:23:23;5.40;99.00
5578;DHT22;2811;51.900;10.734;2023-02-28T10:25:55;5.40;97.50
5578;DHT22;2811;51.900;10.734;2023-02-28T10:28:25;5.30;96.60
5578;DHT22;2811;51.900;10.734;2023-02-28T10:30:53;5.30;96.00
5578;DHT22;2811;51.900;10.734;2023-02-28T10:33:23;5.00;96.20
5578;DHT22;2811;51.900;10.734;2023-02-28T10:35:51;4.90;96.00
5578;DHT22;2811;51.900;10.734;2023-02-28T10:38:25;4.90;95.50
5578;DHT22;2811;51.900;10.734;2023-02-28T10:41:03;4.90;96.40
5578;DHT22;2811;51.900;10.734;2023-02-28T10:43:30;4.80;96.30
5578;DHT22;2811;51.900;10.734;2023-02-28T10:46:02;5.00;97.10
5578;DHT22;2811;51.900;10.734;2023-02-28T10:48:35;5.50;97.10
5578;DHT22;2811;51.900;10.734;2023-02-28T10:51:04;5.60;96.80
5578;DHT22;2811;51.900;10.734;2023-02-28T10:53:35;5.90;97.10
5578;DHT22;2811;51.900;10.734;2023-02-28T10:56:05;5.80;96.70
5578;DHT22;2811;51.900;10.734;2023-02-28T10:58:49;5.80;96.90
5578;DHT22;2811;51.900;10.734;2023-02-28T11:01:18;5.80;96.20
5578;DHT22;2811;51.900;10.734;2023-02-28T11:03:46;5.80;95.20
5578;DHT22;2811;51.900;10.734;2023-02-28T11:06:16;6.00;95.50
5578;DHT22;2811;51.900;10.734;2023-02-28T11:08:47;6.50;95.50
5578;DHT22;2811;51.900;10.734;2023-02-28T11:11:16;6.80;95.10
5578;DHT22;2811;51.900;10.734;2023-02-28T11:13:44;6.90;95.10
5578;DHT22;2811;51.900;10.734;2023-02-28T11:16:12;6.80;94.40
5578;DHT22;2811;51.900;10.734;2023-02-28T11:18:43;6.70;94.10
5578;DHT22;2811;51.900;10.734;2023-02-28T11:21:16;6.30;93.90
5578;DHT22;2811;51.900;10.734;2023-02-28T11:23:46;6.00;94.00
5578;DHT22;2811;51.900;10.734;2023-02-28T11:26:14;6.40;94.70
5578;DHT22;2811;51.900;10.734;2023-02-28T11:28:42;6.30;94.20
5578;DHT22;2811;51.900;10.734;2023-02-28T11:31:17;6.30;94.10
5578;DHT22;2811;51.900;10.734;2023-02-28T11:33:46;6.30;93.60
5578;DHT22;2811;51.900;10.734;2023-02-28T11:36:17;6.40;94.00
5578;DHT22;2811;51.900;10.734;2023-02-28T11:38:46;6.20;94.40
5578;DHT22;2811;51.900;10.734;2023-02-28T11:41:32;6.10;94.30
5578;DHT22;2811;51.900;10.734;2023-02-28T11:44:13;6.10;94.00
5578;DHT22;2811;51.900;10.734;2023-02-28T11:46:47;5.80;94.20
5578;DHT22;2811;51.900;10.734;2023-02-28T11:49:26;5.90;94.90
5578;DHT22;2811;51.900;10.734;2023-02-28T11:51:59;6.00;94.40
5578;DHT22;2811;51.900;10.734;2023-02-28T11:54:56;6.00;94.00
5578;DHT22;2811;51.900;10.734;2023-02-28T11:57:34;5.90;94.20
5578;DHT22;2811;51.900;10.734;2023-02-28T12:00:08;5.80;94.70
5578;DHT22;2811;51.900;10.734;2023-02-28T12:02:51;5.80;95.30
5578;DHT22;2811;51.900;10.734;2023-02-28T12:05:25;6.10;94.70
5578;DHT22;2811;51.900;10.734;2023-02-28T12:08:02;6.30;94.90
5578;DHT22;2811;51.900;10.734;2023-02-28T12:10:37;6.40;94.10
5578;DHT22;2811;51.900;10.734;2023-02-28T12:13:14;6.50;94.50
5578;DHT22;2811;51.900;10.734;2023-02-28T12:16:08;6.50;94.60
5578;DHT22;2811;51.900;10.734;2023-02-28T12:18:49;6.60;93.90
5578;DHT22;2811;51.900;10.734;2023-02-28T12:21:24;6.50;93.60
5578;DHT22;2811;51.900;10.734;2023-02-28T12:24:05;6.70;94.20
5578;DHT22;2811;51.900;10.734;2023-02-28T12:26:39;7.50;94.30
5578;DHT22;2811;51.900;10.734;2023-02-28T12:29:16;7.70;92.60
5578;DHT22;2811;51.900;10.734;2023-02-28T12:31:48;7.70;92.90
5578;DHT22;2811;51.900;10.734;2023-02-28T12:34:19;7.70;92.40
5578;DHT22;2811;51.900;10.734;2023-02-28T12:36:47;7.90;92.80
5578;DHT22;2811;51.900;10.734;2023-02-28T12:39:18;7.90;92.40
5578;DHT22;2811;51.900;10.734;2023-02-28T12:41:50;7.70;91.90
5578;DHT22;2811;51.900;10.734;2023-02-28T12:44:21;7.50;92.60
5578;DHT22;2811;51.900;10.734;2023-02-28T12:46:51;7.10;92.60
5578;DHT22;2811;51.900;10.734;2023-02-28T12:49:23;7.00;92.80
5578;DHT22;2811;51.900;10.734;2023-02-28T12:51:52;6.90;93.50
5578;DHT22;2811;51.900;10.734;2023-02-28T12:54:24;6.90;93.60
5578;DHT22;2811;51.900;10.734;2023-02-28T12:56:58;7.20;93.80
5578;DHT22;2811;51.900;10.734;2023-02-28T12:59:27;6.80;92.60
5578;DHT22;2811;51.900;10.734;2023-02-28T13:02:16;6.90;92.60
5578;DHT22;2811;51.900;10.734;2023-02-28T13:05:07;6.80;92.90
5578;DHT22;2811;51.900;10.734;2023-02-28T13:08:10;6.40;93.50
5578;DHT22;2811;51.900;10.734;2023-02-28T13:10:43;6.60;93.40
5578;DHT22;2811;51.900;10.734;2023-02-28T13:13:17;6.60;92.60
5578;DHT22;2811;51.900;10.734;2023-02-28T13:16:03;6.60;93.40
5578;DHT22;2811;51.900;10.734;2023-02-28T13:18:33;6.40;92.60
5578;DHT22;2811;51.900;10.734;2023-02-28T13:21:01;6.30;93.30
5578;DHT22;2811;51.900;10.734;2023-02-28T13:23:40;6.40;94.40
5578;DHT22;2811;51.900;10.734;2023-02-28T13:26:24;6.70;93.50
5578;DHT22;2811;51.900;10.734;2023-02-28T13:29:28;6.60;92.50
5578;DHT22;2811;51.900;10.734;2023-02-28T13:38:33;6.70;93.30
5578;DHT22;2811;51.900;10.734;2023-02-28T13:41:40;6.70;93.20
5578;DHT22;2811;51.900;10.734;2023-02-28T13:44:08;6.80;93.30
5578;DHT22;2811;51.900;10.734;2023-02-28T13:49:42;6.50;93.50
5578;DHT22;2811;51.900;10.734;2023-02-28T13:52:15;6.50;94.10
5578;DHT22;2811;51.900;10.734;2023-02-28T13:55:13;6.50;94.40
5578;DHT22;2811;51.900;10.734;2023-02-28T13:57:53;6.40;93.80
5578;DHT22;2811;51.900;10.734;2023-02-28T14:00:31;6.40;93.90
5578;DHT22;2811;51.900;10.734;2023-02-28T14:03:18;6.40;93.90
5578;DHT22;2811;51.900;10.734;2023-02-28T14:06:08;6.50;94.60
5578;DHT22;2811;51.900;10.734;2023-02-28T14:08:36;6.50;94.30
5578;DHT22;2811;51.900;10.734;2023-02-28T14:11:05;6.40;93.50
5578;DHT22;2811;51.900;10.734;2023-02-28T14:13:43;6.30;94.10
5578;DHT22;2811;51.900;10.734;2023-02-28T14:16:12;6.30;95.30
5578;DHT22;2811;51.900;10.734;2023-02-28T14:18:43;6.30;95.00
5578;DHT22;2811;51.900;10.734;2023-02-28T14:21:21;6.30;94.30
5578;DHT22;2811;51.900;10.734;2023-02-28T14:24:23;6.20;94.10
5578;DHT22;2811;51.900;10.734;2023-02-28T14:27:16;6.10;95.00
5578;DHT22;2811;51.900;10.734;2023-02-28T14:30:17;6.00;94.40
5578;DHT22;2811;51.900;10.734;2023-02-28T14:32:58;6.00;95.20
5578;DHT22;2811;51.900;10.734;2023-02-28T14:35:45;6.00;94.60
5578;DHT22;2811;51.900;10.734;2023-02-28T14:38:17;5.90;94.40
5578;DHT22;2811;51.900;10.734;2023-02-28T14:40:48;5.90;94.90
5578;DHT22;2811;51.900;10.734;2023-02-28T14:43:20;5.80;94.80
5578;DHT22;2811;51.900;10.734;2023-02-28T14:45:50;5.60;94.90
5578;DHT22;2811;51.900;10.734;2023-02-28T14:48:18;5.60;95.00
5578;DHT22;2811;51.900;10.734;2023-02-28T14:50:51;5.50;95.70
5578;DHT22;2811;51.900;10.734;2023-02-28T14:53:21;5.50;95.40
5578;DHT22;2811;51.900;10.734;2023-02-28T14:55:49;5.50;95.80
5578;DHT22;2811;51.900;10.734;2023-02-28T14:58:22;5.60;95.70
5578;DHT22;2811;51.900;10.734;2023-02-28T15:00:51;5.50;95.30
5578;DHT22;2811;51.900;10.734;2023-02-28T15:03:20;5.60;95.10
5578;DHT22;2811;51.900;10.734;2023-02-28T15:05:53;5.50;95.30
5578;DHT22;2811;51.900;10.734;2023-02-28T15:08:20;5.40;95.40
5578;DHT22;2811;51.900;10.734;2023-02-28T15:10:52;5.40;95.70
5578;DHT22;2811;51.900;10.734;2023-02-28T15:13:20;5.30;96.00
5578;DHT22;2811;51.900;10.734;2023-02-28T15:15:50;5.30;96.80
5578;DHT22;2811;51.900;10.734;2023-02-28T15:18:29;5.30;96.90
5578;DHT22;2811;51.900;10.734;2023-02-28T15:21:01;5.30;96.40
5578;DHT22;2811;51.900;10.734;2023-02-28T15:23:29;5.40;96.30
5578;DHT22;2811;51.900;10.734;2023-02-28T15:25:56;5.30;96.20
5578;DHT22;2811;51.900;10.734;2023-02-28T15:28:24;5.20;96.40
5578;DHT22;2811;51.900;10.734;2023-02-28T15:30:53;5.20;96.70
5578;DHT22;2811;51.900;10.734;2023-02-28T15:33:22;5.10;97.10
5578;DHT22;2811;51.900;10.734;2023-02-28T15:35:49;5.10;96.90
5578;DHT22;2811;51.900;10.734;2023-02-28T15:38:23;5.10;96.60
5578;DHT22;2811;51.900;10.734;2023-02-28T15:40:51;5.00;97.00
5578;DHT22;2811;51.900;10.734;2023-02-28T15:43:25;5.00;97.20
5578;DHT22;2811;51.900;10.734;2023-02-28T15:45:56;4.80;97.20
5578;DHT22;2811;51.900;10.734;2023-02-28T15:48:25;4.90;97.20
5578;DHT22;2811;51.900;10.734;2023-02-28T15:50:54;4.80;97.70
5578;DHT22;2811;51.900;10.734;2023-02-28T15:53:25;4.70;98.20
5578;DHT22;2811;51.900;10.734;2023-02-28T15:56:00;4.70;98.20
5578;DHT22;2811;51.900;10.734;2023-02-28T15:58:27;4.60;97.70
5578;DHT22;2811;51.900;10.734;2023-02-28T16:01:16;4.60;97.90
5578;DHT22;2811;51.900;10.734;2023-02-28T16:03:47;4.50;98.50
5578;DHT22;2811;51.900;10.734;2023-02-28T16:06:33;4.60;99.20
5578;DHT22;2811;51.900;10.734;2023-02-28T16:09:01;4.50;99.70
5578;DHT22;2811;51.900;10.734;2023-02-28T16:11:28;4.40;99.80
5578;DHT22;2811;51.900;10.734;2023-02-28T16:13:56;4.40;99.90
5578;DHT22;2811;51.900;10.734;2023-02-28T16:16:24;4.40;99.90
5578;DHT22;2811;51.900;10.734;2023-02-28T16:18:52;4.40;99.90
5578;DHT22;2811;51.900;10.734;2023-02-28T16:21:19;4.40;99.90
5578;DHT22;2811;51.900;10.734;2023-02-28T16:23:45;4.30;99.90
5578;DHT22;2811;51.900;10.734;2023-02-28T16:26:19;4.20;99.90
5578;DHT22;2811;51.900;10.734;2023-02-28T16:28:47;4.20;99.90
5578;DHT22;2811;51.900;10.734;2023-02-28T16:31:14;4.20;99.90
5578;DHT22;2811;51.900;10.734;2023-02-28T16:33:42;4.10;99.90
5578;DHT22;2811;51.900;10.734;2023-02-28T16:36:12;4.10;99.90
5578;DHT22;2811;51.900;10.734;2023-02-28T16:38:39;4.00;99.90
5578;DHT22;2811;51.900;10.734;2023-02-28T16:41:06;3.90;99.90